sensor_id;sensor_type;location;lat;lon;timestamp;P1;durP1;ratioP1;P2;durP2;ratioP2
10246;SDS011;5168;47.854;7.944;2023-06-26T00:00:41;4.67;;;4.27;;
10246;SDS011;5168;47.854;7.944;2023-06-26T00:03:07;4.93;;;4.43;;
10246;SDS011;5168;47.854;7.944;2023-06-26T00:05:33;4.87;;;4.20;;
10246;SDS011;5168;47.854;7.944;2023-06-26T00:07:59;5.30;;;4.43;;
10246;SDS011;5168;47.854;7.944;2023-06-26T00:10:28;4.77;;;4.20;;
10246;SDS011;5168;47.854;7.944;2023-06-26T00:12:57;4.20;;;3.70;;
10246;SDS011;5168;47.854;7.944;2023-06-26T00:15:22;4.43;;;4.03;;
10246;SDS011;5168;47.854;7.944;2023-06-26T00:17:49;5.10;;;4.23;;
10246;SDS011;5168;47.854;7.944;2023-06-26T00:20:15;4.93;;;4.43;;
10246;SDS011;5168;47.854;7.944;2023-06-26T00:22:44;4.67;;;4.17;;
10246;SDS011;5168;47.854;7.944;2023-06-26T00:25:12;5.07;;;4.57;;
10246;SDS011;5168;47.854;7.944;2023-06-26T00:27:38;4.80;;;4.30;;
10246;SDS011;5168;47.854;7.944;2023-06-26T00:30:07;4.90;;;4.40;;
10246;SDS011;5168;47.854;7.944;2023-06-26T00:32:33;4.83;;;4.33;;
10246;SDS011;5168;47.854;7.944;2023-06-26T00:34:59;5.27;;;4.47;;
10246;SDS011;5168;47.854;7.944;2023-06-26T00:37:24;4.37;;;3.97;;
10246;SDS011;5168;47.854;7.944;2023-06-26T00:39:50;5.67;;;4.20;;
10246;SDS011;5168;47.854;7.944;2023-06-26T00:42:16;5.23;;;4.00;;
10246;SDS011;5168;47.854;7.944;2023-06-26T00:44:41;5.60;;;4.40;;
10246;SDS011;5168;47.854;7.944;2023-06-26T00:47:07;4.27;;;3.87;;
10246;SDS011;5168;47.854;7.944;2023-06-26T00:49:33;6.10;;;4.03;;
10246;SDS011;5168;47.854;7.944;2023-06-26T00:51:59;5.00;;;4.50;;
10246;SDS011;5168;47.854;7.944;2023-06-26T00:54:25;5.47;;;4.60;;
10246;SDS011;5168;47.854;7.944;2023-06-26T00:56:53;4.60;;;4.10;;
10246;SDS011;5168;47.854;7.944;2023-06-26T00:59:19;6.80;;;4.43;;
10246;SDS011;5168;47.854;7.944;2023-06-26T01:01:44;5.17;;;4.30;;
10246;SDS011;5168;47.854;7.944;2023-06-26T01:04:10;5.30;;;4.03;;
10246;SDS011;5168;47.854;7.944;2023-06-26T01:06:43;4.57;;;3.90;;
10246;SDS011;5168;47.854;7.944;2023-06-26T01:09:15;5.60;;;4.67;;
10246;SDS011;5168;47.854;7.944;2023-06-26T01:11:47;4.87;;;4.37;;
10246;SDS011;5168;47.854;7.944;2023-06-26T01:14:15;5.00;;;4.47;;
10246;SDS011;5168;47.854;7.944;2023-06-26T01:16:40;4.17;;;3.77;;
10246;SDS011;5168;47.854;7.944;2023-06-26T01:19:13;4.80;;;4.27;;
10246;SDS011;5168;47.854;7.944;2023-06-26T01:27:48;5.07;;;4.57;;
10246;SDS011;5168;47.854;7.944;2023-06-26T01:30:16;4.50;;;3.77;;
10246;SDS011;5168;47.854;7.944;2023-06-26T01:32:43;4.27;;;3.90;;
10246;SDS011;5168;47.854;7.944;2023-06-26T01:35:09;3.87;;;3.47;;
10246;SDS011;5168;47.854;7.944;2023-06-26T01:37:35;4.33;;;3.83;;
10246;SDS011;5168;47.854;7.944;2023-06-26T01:40:03;4.30;;;3.90;;
10246;SDS011;5168;47.854;7.944;2023-06-26T01:42:35;4.57;;;4.10;;
10246;SDS011;5168;47.854;7.944;2023-06-26T01:45:33;4.50;;;4.10;;
10246;SDS011;5168;47.854;7.944;2023-06-26T01:47:54;4.37;;;3.97;;
10246;SDS011;5168;47.854;7.944;2023-06-26T01:50:26;4.17;;;3.77;;
10246;SDS011;5168;47.854;7.944;2023-06-26T01:53:02;4.13;;;3.77;;
10246;SDS011;5168;47.854;7.944;2023-06-26T01:58:32;3.93;;;3.53;;
10246;SDS011;5168;47.854;7.944;2023-06-26T02:00:59;3.93;;;3.53;;
10246;SDS011;5168;47.854;7.944;2023-06-26T02:03:24;4.23;;;3.83;;
10246;SDS011;5168;47.854;7.944;2023-06-26T02:05:51;4.40;;;3.83;;
10246;SDS011;5168;47.854;7.944;2023-06-26T02:08:17;4.43;;;3.87;;
10246;SDS011;5168;47.854;7.944;2023-06-26T02:10:42;4.07;;;3.70;;
10246;SDS011;5168;47.854;7.944;2023-06-26T02:13:08;4.50;;;3.63;;
10246;SDS011;5168;47.854;7.944;2023-06-26T02:15:34;4.47;;;3.37;;
10246;SDS011;5168;47.854;7.944;2023-06-26T02:17:59;4.30;;;3.90;;
10246;SDS011;5168;47.854;7.944;2023-06-26T02:20:25;4.13;;;3.73;;
10246;SDS011;5168;47.854;7.944;2023-06-26T02:22:51;4.53;;;3.90;;
10246;SDS011;5168;47.854;7.944;2023-06-26T02:25:17;4.03;;;3.63;;
10246;SDS011;5168;47.854;7.944;2023-06-26T02:27:43;4.67;;;4.00;;
10246;SDS011;5168;47.854;7.944;2023-06-26T02:30:09;4.67;;;4.03;;
10246;SDS011;5168;47.854;7.944;2023-06-26T02:32:35;4.40;;;4.00;;
10246;SDS011;5168;47.854;7.944;2023-06-26T02:35:01;4.37;;;3.97;;
10246;SDS011;5168;47.854;7.944;2023-06-26T02:37:27;4.63;;;3.90;;
10246;SDS011;5168;47.854;7.944;2023-06-26T02:39:57;4.00;;;3.60;;
10246;SDS011;5168;47.854;7.944;2023-06-26T02:42:25;5.30;;;4.03;;
10246;SDS011;5168;47.854;7.944;2023-06-26T02:44:50;5.13;;;4.03;;
10246;SDS011;5168;47.854;7.944;2023-06-26T02:47:16;4.70;;;3.67;;
10246;SDS011;5168;47.854;7.944;2023-06-26T02:49:42;4.60;;;4.07;;
10246;SDS011;5168;47.854;7.944;2023-06-26T02:52:08;4.33;;;3.93;;
10246;SDS011;5168;47.854;7.944;2023-06-26T02:54:34;4.33;;;3.93;;
10246;SDS011;5168;47.854;7.944;2023-06-26T02:57:00;4.20;;;3.80;;
10246;SDS011;5168;47.854;7.944;2023-06-26T02:59:25;4.37;;;3.97;;
10246;SDS011;5168;47.854;7.944;2023-06-26T03:01:51;4.53;;;4.13;;
10246;SDS011;5168;47.854;7.944;2023-06-26T03:04:17;4.63;;;3.80;;
10246;SDS011;5168;47.854;7.944;2023-06-26T03:06:46;4.70;;;4.30;;
10246;SDS011;5168;47.854;7.944;2023-06-26T03:09:12;4.10;;;3.70;;
10246;SDS011;5168;47.854;7.944;2023-06-26T03:11:38;4.80;;;4.40;;
10246;SDS011;5168;47.854;7.944;2023-06-26T03:14:03;4.90;;;4.30;;
10246;SDS011;5168;47.854;7.944;2023-06-26T03:16:29;5.27;;;4.77;;
10246;SDS011;5168;47.854;7.944;2023-06-26T03:18:55;5.33;;;4.80;;
10246;SDS011;5168;47.854;7.944;2023-06-26T03:21:21;5.17;;;4.67;;
10246;SDS011;5168;47.854;7.944;2023-06-26T03:23:47;4.87;;;4.20;;
10246;SDS011;5168;47.854;7.944;2023-06-26T03:26:12;5.30;;;4.80;;
10246;SDS011;5168;47.854;7.944;2023-06-26T03:28:39;5.40;;;4.63;;
10246;SDS011;5168;47.854;7.944;2023-06-26T03:31:05;5.33;;;4.70;;
10246;SDS011;5168;47.854;7.944;2023-06-26T03:33:31;5.80;;;5.00;;
10246;SDS011;5168;47.854;7.944;2023-06-26T03:35:57;4.80;;;4.40;;
10246;SDS011;5168;47.854;7.944;2023-06-26T03:38:22;5.50;;;4.50;;
10246;SDS011;5168;47.854;7.944;2023-06-26T03:40:49;4.93;;;4.43;;
10246;SDS011;5168;47.854;7.944;2023-06-26T03:43:15;4.73;;;4.27;;
10246;SDS011;5168;47.854;7.944;2023-06-26T03:45:41;4.77;;;4.27;;
10246;SDS011;5168;47.854;7.944;2023-06-26T03:48:07;5.23;;;4.47;;
10246;SDS011;5168;47.854;7.944;2023-06-26T03:50:33;6.37;;;4.27;;
10246;SDS011;5168;47.854;7.944;2023-06-26T03:52:59;5.30;;;4.77;;
10246;SDS011;5168;47.854;7.944;2023-06-26T03:55:25;5.00;;;4.50;;
10246;SDS011;5168;47.854;7.944;2023-06-26T03:57:51;4.37;;;3.97;;
10246;SDS011;5168;47.854;7.944;2023-06-26T04:00:16;4.57;;;4.17;;
10246;SDS011;5168;47.854;7.944;2023-06-26T04:02:42;4.60;;;4.20;;
10246;SDS011;5168;47.854;7.944;2023-06-26T04:05:08;4.57;;;4.17;;
10246;SDS011;5168;47.854;7.944;2023-06-26T04:07:34;4.87;;;4.17;;
10246;SDS011;5168;47.854;7.944;2023-06-26T04:10:00;4.77;;;4.27;;
10246;SDS011;5168;47.854;7.944;2023-06-26T04:12:26;4.70;;;4.20;;
10246;SDS011;5168;47.854;7.944;2023-06-26T04:14:52;4.57;;;4.17;;
10246;SDS011;5168;47.854;7.944;2023-06-26T04:17:18;4.90;;;4.33;;
10246;SDS011;5168;47.854;7.944;2023-06-26T04:19:47;4.83;;;4.40;;
10246;SDS011;5168;47.854;7.944;2023-06-26T04:22:12;5.83;;;4.50;;
10246;SDS011;5168;47.854;7.944;2023-06-26T04:24:38;4.90;;;4.40;;
10246;SDS011;5168;47.854;7.944;2023-06-26T04:27:04;4.83;;;4.30;;
10246;SDS011;5168;47.854;7.944;2023-06-26T04:29:30;5.10;;;4.60;;
10246;SDS011;5168;47.854;7.944;2023-06-26T04:31:56;5.03;;;4.53;;
10246;SDS011;5168;47.854;7.944;2023-06-26T04:34:25;4.60;;;4.10;;
10246;SDS011;5168;47.854;7.944;2023-06-26T04:36:58;4.60;;;4.20;;
10246;SDS011;5168;47.854;7.944;2023-06-26T04:39:24;4.50;;;3.90;;
10246;SDS011;5168;47.854;7.944;2023-06-26T04:41:52;4.67;;;4.17;;
10246;SDS011;5168;47.854;7.944;2023-06-26T04:44:17;4.30;;;3.90;;
10246;SDS011;5168;47.854;7.944;2023-06-26T04:46:43;4.07;;;3.70;;
10246;SDS011;5168;47.854;7.944;2023-06-26T04:49:09;4.30;;;3.90;;
10246;SDS011;5168;47.854;7.944;2023-06-26T04:51:35;4.60;;;4.20;;
10246;SDS011;5168;47.854;7.944;2023-06-26T04:54:08;4.73;;;4.20;;
10246;SDS011;5168;47.854;7.944;2023-06-26T04:56:39;4.13;;;3.73;;
10246;SDS011;5168;47.854;7.944;2023-06-26T04:59:05;4.87;;;4.17;;
10246;SDS011;5168;47.854;7.944;2023-06-26T05:01:31;4.07;;;3.57;;
10246;SDS011;5168;47.854;7.944;2023-06-26T05:03:57;4.53;;;4.13;;
10246;SDS011;5168;47.854;7.944;2023-06-26T05:06:27;4.23;;;3.83;;
10246;SDS011;5168;47.854;7.944;2023-06-26T05:08:52;4.37;;;3.93;;
10246;SDS011;5168;47.854;7.944;2023-06-26T05:11:18;4.13;;;3.60;;
10246;SDS011;5168;47.854;7.944;2023-06-26T05:13:49;4.40;;;4.00;;
10246;SDS011;5168;47.854;7.944;2023-06-26T05:16:15;4.77;;;4.23;;
10246;SDS011;5168;47.854;7.944;2023-06-26T05:18:40;5.07;;;4.57;;
10246;SDS011;5168;47.854;7.944;2023-06-26T05:21:07;4.57;;;4.17;;
10246;SDS011;5168;47.854;7.944;2023-06-26T05:23:33;4.60;;;4.20;;
10246;SDS011;5168;47.854;7.944;2023-06-26T05:26:00;4.37;;;3.83;;
10246;SDS011;5168;47.854;7.944;2023-06-26T05:28:26;5.07;;;4.57;;
10246;SDS011;5168;47.854;7.944;2023-06-26T05:30:52;4.50;;;4.10;;
10246;SDS011;5168;47.854;7.944;2023-06-26T05:33:19;4.93;;;4.50;;
10246;SDS011;5168;47.854;7.944;2023-06-26T05:35:48;5.20;;;4.60;;
10246;SDS011;5168;47.854;7.944;2023-06-26T05:38:16;4.70;;;4.27;;
10246;SDS011;5168;47.854;7.944;2023-06-26T05:40:42;5.53;;;4.80;;
10246;SDS011;5168;47.854;7.944;2023-06-26T05:43:08;5.10;;;4.60;;
10246;SDS011;5168;47.854;7.944;2023-06-26T05:45:34;5.60;;;4.90;;
10246;SDS011;5168;47.854;7.944;2023-06-26T05:48:02;5.07;;;4.30;;
10246;SDS011;5168;47.854;7.944;2023-06-26T05:50:28;4.73;;;4.33;;
10246;SDS011;5168;47.854;7.944;2023-06-26T05:52:54;5.93;;;4.17;;
10246;SDS011;5168;47.854;7.944;2023-06-26T05:55:20;4.40;;;4.00;;
10246;SDS011;5168;47.854;7.944;2023-06-26T05:57:46;5.70;;;5.00;;
10246;SDS011;5168;47.854;7.944;2023-06-26T06:00:12;4.87;;;4.37;;
10246;SDS011;5168;47.854;7.944;2023-06-26T06:02:39;4.67;;;4.27;;
10246;SDS011;5168;47.854;7.944;2023-06-26T06:05:06;4.77;;;4.20;;
10246;SDS011;5168;47.854;7.944;2023-06-26T06:07:32;5.90;;;4.83;;
10246;SDS011;5168;47.854;7.944;2023-06-26T06:09:58;5.27;;;4.60;;
10246;SDS011;5168;47.854;7.944;2023-06-26T06:12:27;5.93;;;4.73;;
10246;SDS011;5168;47.854;7.944;2023-06-26T06:14:52;5.47;;;4.93;;
10246;SDS011;5168;47.854;7.944;2023-06-26T06:17:19;4.70;;;4.30;;
10246;SDS011;5168;47.854;7.944;2023-06-26T06:19:45;6.07;;;4.77;;
10246;SDS011;5168;47.854;7.944;2023-06-26T06:22:11;5.45;;;4.93;;
10246;SDS011;5168;47.854;7.944;2023-06-26T06:24:37;6.87;;;4.90;;
10246;SDS011;5168;47.854;7.944;2023-06-26T06:27:02;5.93;;;5.07;;
10246;SDS011;5168;47.854;7.944;2023-06-26T06:29:28;5.10;;;4.60;;
10246;SDS011;5168;47.854;7.944;2023-06-26T06:31:54;5.70;;;4.78;;
10246;SDS011;5168;47.854;7.944;2023-06-26T06:34:20;5.93;;;4.53;;
10246;SDS011;5168;47.854;7.944;2023-06-26T06:36:46;4.68;;;4.22;;
10246;SDS011;5168;47.854;7.944;2023-06-26T06:39:12;5.40;;;4.68;;
10246;SDS011;5168;47.854;7.944;2023-06-26T06:41:38;6.50;;;5.07;;
10246;SDS011;5168;47.854;7.944;2023-06-26T06:44:03;6.95;;;4.80;;
10246;SDS011;5168;47.854;7.944;2023-06-26T06:46:29;5.57;;;4.75;;
10246;SDS011;5168;47.854;7.944;2023-06-26T06:48:55;6.43;;;4.60;;
10246;SDS011;5168;47.854;7.944;2023-06-26T06:51:21;5.28;;;4.78;;
10246;SDS011;5168;47.854;7.944;2023-06-26T06:53:47;5.53;;;4.45;;
10246;SDS011;5168;47.854;7.944;2023-06-26T06:56:14;6.20;;;4.70;;
10246;SDS011;5168;47.854;7.944;2023-06-26T06:58:40;6.68;;;4.70;;
10246;SDS011;5168;47.854;7.944;2023-06-26T07:01:07;6.60;;;4.80;;
10246;SDS011;5168;47.854;7.944;2023-06-26T07:03:35;5.60;;;5.05;;
10246;SDS011;5168;47.854;7.944;2023-06-26T07:06:01;6.40;;;4.70;;
10246;SDS011;5168;47.854;7.944;2023-06-26T07:08:28;5.70;;;4.55;;
10246;SDS011;5168;47.854;7.944;2023-06-26T07:10:54;5.47;;;4.97;;
10246;SDS011;5168;47.854;7.944;2023-06-26T07:13:21;5.88;;;4.88;;
10246;SDS011;5168;47.854;7.944;2023-06-26T07:15:47;5.63;;;4.65;;
10246;SDS011;5168;47.854;7.944;2023-06-26T07:18:13;5.47;;;4.72;;
10246;SDS011;5168;47.854;7.944;2023-06-26T07:20:39;6.10;;;5.50;;
10246;SDS011;5168;47.854;7.944;2023-06-26T07:23:05;7.07;;;4.70;;
10246;SDS011;5168;47.854;7.944;2023-06-26T07:25:30;8.77;;;5.03;;
10246;SDS011;5168;47.854;7.944;2023-06-26T07:27:56;5.20;;;4.70;;
10246;SDS011;5168;47.854;7.944;2023-06-26T07:30:22;7.88;;;5.28;;
10246;SDS011;5168;47.854;7.944;2023-06-26T07:32:49;5.50;;;4.90;;
10246;SDS011;5168;47.854;7.944;2023-06-26T07:35:15;5.22;;;4.70;;
10246;SDS011;5168;47.854;7.944;2023-06-26T07:37:40;5.30;;;4.80;;
10246;SDS011;5168;47.854;7.944;2023-06-26T07:40:07;5.95;;;4.90;;
10246;SDS011;5168;47.854;7.944;2023-06-26T07:42:33;4.78;;;4.30;;
10246;SDS011;5168;47.854;7.944;2023-06-26T07:44:59;5.15;;;4.65;;
10246;SDS011;5168;47.854;7.944;2023-06-26T07:47:25;5.03;;;4.53;;
10246;SDS011;5168;47.854;7.944;2023-06-26T07:49:51;6.13;;;5.15;;
10246;SDS011;5168;47.854;7.944;2023-06-26T07:52:19;6.40;;;4.53;;
10246;SDS011;5168;47.854;7.944;2023-06-26T07:54:48;6.00;;;5.03;;
10246;SDS011;5168;47.854;7.944;2023-06-26T07:57:14;6.00;;;5.00;;
10246;SDS011;5168;47.854;7.944;2023-06-26T07:59:39;5.65;;;5.05;;
10246;SDS011;5168;47.854;7.944;2023-06-26T08:02:05;6.50;;;5.18;;
10246;SDS011;5168;47.854;7.944;2023-06-26T08:04:31;8.20;;;5.18;;
10246;SDS011;5168;47.854;7.944;2023-06-26T08:06:58;6.25;;;5.40;;
10246;SDS011;5168;47.854;7.944;2023-06-26T08:09:26;6.72;;;4.70;;
10246;SDS011;5168;47.854;7.944;2023-06-26T08:11:54;4.90;;;4.43;;
10246;SDS011;5168;47.854;7.944;2023-06-26T08:14:19;5.80;;;5.20;;
10246;SDS011;5168;47.854;7.944;2023-06-26T08:16:45;6.45;;;4.80;;
10246;SDS011;5168;47.854;7.944;2023-06-26T08:19:12;5.05;;;4.45;;
10246;SDS011;5168;47.854;7.944;2023-06-26T08:21:39;5.03;;;4.53;;
10246;SDS011;5168;47.854;7.944;2023-06-26T08:24:08;6.60;;;4.47;;
10246;SDS011;5168;47.854;7.944;2023-06-26T08:26:34;4.93;;;3.95;;
10246;SDS011;5168;47.854;7.944;2023-06-26T08:29:00;5.13;;;4.63;;
10246;SDS011;5168;47.854;7.944;2023-06-26T08:31:35;5.03;;;4.53;;
10246;SDS011;5168;47.854;7.944;2023-06-26T08:34:01;4.90;;;3.97;;
10246;SDS011;5168;47.854;7.944;2023-06-26T08:36:28;5.47;;;4.60;;
10246;SDS011;5168;47.854;7.944;2023-06-26T08:38:53;6.47;;;4.38;;
10246;SDS011;5168;47.854;7.944;2023-06-26T08:41:19;6.00;;;4.90;;
10246;SDS011;5168;47.854;7.944;2023-06-26T08:43:45;5.10;;;4.60;;
10246;SDS011;5168;47.854;7.944;2023-06-26T08:46:12;5.15;;;4.55;;
10246;SDS011;5168;47.854;7.944;2023-06-26T08:48:39;5.57;;;4.93;;
10246;SDS011;5168;47.854;7.944;2023-06-26T08:51:11;5.93;;;5.32;;
10246;SDS011;5168;47.854;7.944;2023-06-26T08:53:43;5.43;;;4.93;;
10246;SDS011;5168;47.854;7.944;2023-06-26T08:56:12;6.68;;;4.95;;
10246;SDS011;5168;47.854;7.944;2023-06-26T08:58:39;5.75;;;4.97;;
10246;SDS011;5168;47.854;7.944;2023-06-26T09:01:05;4.82;;;4.32;;
10246;SDS011;5168;47.854;7.944;2023-06-26T09:03:31;5.55;;;5.05;;
10246;SDS011;5168;47.854;7.944;2023-06-26T09:05:58;5.63;;;5.03;;
10246;SDS011;5168;47.854;7.944;2023-06-26T09:08:24;6.07;;;4.50;;
10246;SDS011;5168;47.854;7.944;2023-06-26T09:10:49;5.22;;;4.70;;
10246;SDS011;5168;47.854;7.944;2023-06-26T09:13:15;7.35;;;5.03;;
10246;SDS011;5168;47.854;7.944;2023-06-26T09:15:44;7.60;;;4.32;;
10246;SDS011;5168;47.854;7.944;2023-06-26T09:18:11;5.53;;;4.75;;
10246;SDS011;5168;47.854;7.944;2023-06-26T09:20:37;6.20;;;4.85;;
10246;SDS011;5168;47.854;7.944;2023-06-26T09:23:03;6.10;;;5.15;;
10246;SDS011;5168;47.854;7.944;2023-06-26T09:25:30;6.25;;;4.85;;
10246;SDS011;5168;47.854;7.944;2023-06-26T09:27:56;6.07;;;5.47;;
10246;SDS011;5168;47.854;7.944;2023-06-26T09:30:22;5.60;;;5.10;;
10246;SDS011;5168;47.854;7.944;2023-06-26T09:32:48;7.75;;;4.88;;
10246;SDS011;5168;47.854;7.944;2023-06-26T09:35:15;5.78;;;5.10;;
10246;SDS011;5168;47.854;7.944;2023-06-26T09:37:41;5.85;;;5.00;;
10246;SDS011;5168;47.854;7.944;2023-06-26T09:40:10;5.38;;;4.88;;
10246;SDS011;5168;47.854;7.944;2023-06-26T09:42:36;5.45;;;4.95;;
10246;SDS011;5168;47.854;7.944;2023-06-26T09:45:02;5.70;;;5.10;;
10246;SDS011;5168;47.854;7.944;2023-06-26T09:47:30;5.72;;;5.15;;
10246;SDS011;5168;47.854;7.944;2023-06-26T09:49:59;6.07;;;5.32;;
10246;SDS011;5168;47.854;7.944;2023-06-26T09:52:25;6.85;;;5.80;;
10246;SDS011;5168;47.854;7.944;2023-06-26T09:55:06;6.05;;;5.00;;
10246;SDS011;5168;47.854;7.944;2023-06-26T09:57:34;10.65;;;5.13;;
10246;SDS011;5168;47.854;7.944;2023-06-26T10:00:00;9.30;;;5.45;;
10246;SDS011;5168;47.854;7.944;2023-06-26T10:02:27;6.30;;;5.18;;
10246;SDS011;5168;47.854;7.944;2023-06-26T10:04:53;7.38;;;5.30;;
10246;SDS011;5168;47.854;7.944;2023-06-26T10:07:19;5.53;;;5.03;;
10246;SDS011;5168;47.854;7.944;2023-06-26T10:09:45;6.10;;;5.50;;
10246;SDS011;5168;47.854;7.944;2023-06-26T10:14:44;5.80;;;5.05;;
10246;SDS011;5168;47.854;7.944;2023-06-26T10:17:10;6.10;;;5.35;;
10246;SDS011;5168;47.854;7.944;2023-06-26T10:19:39;7.63;;;5.68;;
10246;SDS011;5168;47.854;7.944;2023-06-26T10:22:06;9.35;;;5.25;;
10246;SDS011;5168;47.854;7.944;2023-06-26T10:24:33;10.10;;;5.95;;
10246;SDS011;5168;47.854;7.944;2023-06-26T10:27:04;7.75;;;5.47;;
10246;SDS011;5168;47.854;7.944;2023-06-26T10:29:39;7.55;;;5.68;;
10246;SDS011;5168;47.854;7.944;2023-06-26T10:32:05;7.63;;;5.68;;
10246;SDS011;5168;47.854;7.944;2023-06-26T10:34:33;8.13;;;5.95;;
10246;SDS011;5168;47.854;7.944;2023-06-26T10:36:59;6.28;;;5.68;;
10246;SDS011;5168;47.854;7.944;2023-06-26T10:39:26;7.25;;;5.55;;
10246;SDS011;5168;47.854;7.944;2023-06-26T10:41:52;7.65;;;5.55;;
10246;SDS011;5168;47.854;7.944;2023-06-26T10:44:20;6.65;;;5.95;;
10246;SDS011;5168;47.854;7.944;2023-06-26T10:49:18;6.32;;;5.72;;
10246;SDS011;5168;47.854;7.944;2023-06-26T10:52:00;6.85;;;5.88;;
10246;SDS011;5168;47.854;7.944;2023-06-26T10:54:28;7.45;;;5.80;;
10246;SDS011;5168;47.854;7.944;2023-06-26T10:56:55;9.05;;;6.15;;
10246;SDS011;5168;47.854;7.944;2023-06-26T10:59:27;6.63;;;5.93;;
10246;SDS011;5168;47.854;7.944;2023-06-26T11:01:54;6.63;;;5.75;;
10246;SDS011;5168;47.854;7.944;2023-06-26T11:04:21;6.38;;;5.75;;
10246;SDS011;5168;47.854;7.944;2023-06-26T11:07:15;6.28;;;5.50;;
10246;SDS011;5168;47.854;7.944;2023-06-26T11:09:55;10.23;;;6.50;;
10246;SDS011;5168;47.854;7.944;2023-06-26T11:12:37;7.07;;;6.38;;
10246;SDS011;5168;47.854;7.944;2023-06-26T11:15:07;7.60;;;6.25;;
10246;SDS011;5168;47.854;7.944;2023-06-26T11:17:39;7.50;;;5.55;;
10246;SDS011;5168;47.854;7.944;2023-06-26T11:20:06;9.30;;;5.35;;
10246;SDS011;5168;47.854;7.944;2023-06-26T11:22:37;8.10;;;6.30;;
10246;SDS011;5168;47.854;7.944;2023-06-26T11:25:06;8.52;;;5.93;;
10246;SDS011;5168;47.854;7.944;2023-06-26T11:27:43;7.00;;;6.25;;
10246;SDS011;5168;47.854;7.944;2023-06-26T11:30:22;7.22;;;6.13;;
10246;SDS011;5168;47.854;7.944;2023-06-26T11:32:48;7.22;;;6.20;;
10246;SDS011;5168;47.854;7.944;2023-06-26T11:35:21;7.28;;;5.88;;
10246;SDS011;5168;47.854;7.944;2023-06-26T11:37:57;7.63;;;5.90;;
10246;SDS011;5168;47.854;7.944;2023-06-26T11:40:25;7.32;;;5.80;;
10246;SDS011;5168;47.854;7.944;2023-06-26T11:42:57;8.93;;;5.80;;
10246;SDS011;5168;47.854;7.944;2023-06-26T11:45:24;7.15;;;6.35;;
10246;SDS011;5168;47.854;7.944;2023-06-26T11:47:50;6.40;;;5.75;;
10246;SDS011;5168;47.854;7.944;2023-06-26T11:50:16;9.10;;;6.55;;
10246;SDS011;5168;47.854;7.944;2023-06-26T11:52:42;6.07;;;5.45;;
10246;SDS011;5168;47.854;7.944;2023-06-26T11:55:08;9.15;;;6.65;;
10246;SDS011;5168;47.854;7.944;2023-06-26T11:57:35;7.63;;;5.60;;
10246;SDS011;5168;47.854;7.944;2023-06-26T12:00:13;7.82;;;5.93;;
10246;SDS011;5168;47.854;7.944;2023-06-26T12:02:40;8.93;;;6.57;;
10246;SDS011;5168;47.854;7.944;2023-06-26T12:05:06;10.55;;;6.32;;
10246;SDS011;5168;47.854;7.944;2023-06-26T12:07:32;8.43;;;7.15;;
10246;SDS011;5168;47.854;7.944;2023-06-26T12:09:59;7.70;;;6.45;;
10246;SDS011;5168;47.854;7.944;2023-06-26T12:12:26;7.65;;;6.57;;
10246;SDS011;5168;47.854;7.944;2023-06-26T12:14:52;6.95;;;6.25;;
10246;SDS011;5168;47.854;7.944;2023-06-26T12:17:17;8.07;;;7.20;;
10246;SDS011;5168;47.854;7.944;2023-06-26T12:19:48;7.90;;;7.07;;
10246;SDS011;5168;47.854;7.944;2023-06-26T12:22:14;9.07;;;6.95;;
10246;SDS011;5168;47.854;7.944;2023-06-26T12:24:41;8.25;;;6.22;;
10246;SDS011;5168;47.854;7.944;2023-06-26T12:27:11;8.07;;;7.05;;
10246;SDS011;5168;47.854;7.944;2023-06-26T12:29:39;7.10;;;6.35;;
10246;SDS011;5168;47.854;7.944;2023-06-26T12:32:09;7.40;;;6.63;;
10246;SDS011;5168;47.854;7.944;2023-06-26T12:34:36;10.35;;;6.18;;
10246;SDS011;5168;47.854;7.944;2023-06-26T12:37:08;7.70;;;6.85;;
10246;SDS011;5168;47.854;7.944;2023-06-26T12:42:17;8.02;;;6.60;;
10246;SDS011;5168;47.854;7.944;2023-06-26T12:44:44;7.82;;;6.82;;
10246;SDS011;5168;47.854;7.944;2023-06-26T12:47:09;8.05;;;7.25;;
10246;SDS011;5168;47.854;7.944;2023-06-26T12:49:38;7.53;;;6.57;;
10246;SDS011;5168;47.854;7.944;2023-06-26T12:52:05;7.53;;;6.80;;
10246;SDS011;5168;47.854;7.944;2023-06-26T12:54:33;6.90;;;6.20;;
10246;SDS011;5168;47.854;7.944;2023-06-26T12:56:59;9.40;;;7.03;;
10246;SDS011;5168;47.854;7.944;2023-06-26T12:59:25;7.45;;;6.50;;
10246;SDS011;5168;47.854;7.944;2023-06-26T13:01:51;7.15;;;6.40;;
10246;SDS011;5168;47.854;7.944;2023-06-26T13:04:17;6.68;;;6.07;;
10246;SDS011;5168;47.854;7.944;2023-06-26T13:06:43;7.03;;;6.32;;
10246;SDS011;5168;47.854;7.944;2023-06-26T13:09:09;10.57;;;6.15;;
10246;SDS011;5168;47.854;7.944;2023-06-26T13:11:35;9.38;;;7.10;;
10246;SDS011;5168;47.854;7.944;2023-06-26T13:14:02;8.23;;;5.95;;
10246;SDS011;5168;47.854;7.944;2023-06-26T13:16:28;7.00;;;5.97;;
10246;SDS011;5168;47.854;7.944;2023-06-26T13:18:54;7.38;;;6.30;;
10246;SDS011;5168;47.854;7.944;2023-06-26T13:21:20;6.40;;;5.70;;
10246;SDS011;5168;47.854;7.944;2023-06-26T13:23:46;6.13;;;5.40;;
10246;SDS011;5168;47.854;7.944;2023-06-26T13:26:12;9.30;;;5.88;;
10246;SDS011;5168;47.854;7.944;2023-06-26T13:28:38;8.00;;;5.78;;
10246;SDS011;5168;47.854;7.944;2023-06-26T13:31:04;7.20;;;5.13;;
10246;SDS011;5168;47.854;7.944;2023-06-26T13:33:30;6.82;;;5.50;;
10246;SDS011;5168;47.854;7.944;2023-06-26T13:35:56;5.93;;;5.28;;
10246;SDS011;5168;47.854;7.944;2023-06-26T13:38:22;8.68;;;5.40;;
10246;SDS011;5168;47.854;7.944;2023-06-26T13:40:50;7.43;;;4.97;;
10246;SDS011;5168;47.854;7.944;2023-06-26T13:43:16;7.72;;;4.70;;
10246;SDS011;5168;47.854;7.944;2023-06-26T13:45:42;6.85;;;5.43;;
10246;SDS011;5168;47.854;7.944;2023-06-26T13:48:07;7.22;;;4.97;;
10246;SDS011;5168;47.854;7.944;2023-06-26T13:50:33;5.93;;;4.78;;
10246;SDS011;5168;47.854;7.944;2023-06-26T13:52:59;8.45;;;4.78;;
10246;SDS011;5168;47.854;7.944;2023-06-26T13:55:25;4.90;;;4.20;;
10246;SDS011;5168;47.854;7.944;2023-06-26T13:57:51;5.72;;;4.00;;
10246;SDS011;5168;47.854;7.944;2023-06-26T14:00:16;5.32;;;4.38;;
10246;SDS011;5168;47.854;7.944;2023-06-26T14:02:45;6.63;;;4.35;;
10246;SDS011;5168;47.854;7.944;2023-06-26T14:05:11;5.50;;;3.95;;
10246;SDS011;5168;47.854;7.944;2023-06-26T14:07:36;4.82;;;3.97;;
10246;SDS011;5168;47.854;7.944;2023-06-26T14:10:03;5.45;;;4.68;;
10246;SDS011;5168;47.854;7.944;2023-06-26T14:12:30;6.53;;;4.63;;
10246;SDS011;5168;47.854;7.944;2023-06-26T14:14:56;4.50;;;4.10;;
10246;SDS011;5168;47.854;7.944;2023-06-26T14:17:22;6.60;;;4.65;;
10246;SDS011;5168;47.854;7.944;2023-06-26T14:19:51;5.22;;;4.40;;
10246;SDS011;5168;47.854;7.944;2023-06-26T14:22:17;9.07;;;4.45;;
10246;SDS011;5168;47.854;7.944;2023-06-26T14:24:43;5.40;;;4.85;;
10246;SDS011;5168;47.854;7.944;2023-06-26T14:27:08;6.22;;;4.20;;
10246;SDS011;5168;47.854;7.944;2023-06-26T14:29:35;6.75;;;4.63;;
10246;SDS011;5168;47.854;7.944;2023-06-26T14:32:01;5.25;;;4.63;;
10246;SDS011;5168;47.854;7.944;2023-06-26T14:34:27;6.97;;;4.85;;
10246;SDS011;5168;47.854;7.944;2023-06-26T14:36:53;6.32;;;5.07;;
10246;SDS011;5168;47.854;7.944;2023-06-26T14:39:19;5.63;;;4.70;;
10246;SDS011;5168;47.854;7.944;2023-06-26T14:41:44;7.70;;;4.50;;
10246;SDS011;5168;47.854;7.944;2023-06-26T14:44:10;4.38;;;3.78;;
10246;SDS011;5168;47.854;7.944;2023-06-26T14:46:36;6.30;;;4.38;;
10246;SDS011;5168;47.854;7.944;2023-06-26T14:49:02;5.38;;;4.22;;
10246;SDS011;5168;47.854;7.944;2023-06-26T14:51:27;5.32;;;4.18;;
10246;SDS011;5168;47.854;7.944;2023-06-26T14:53:54;5.57;;;3.97;;
10246;SDS011;5168;47.854;7.944;2023-06-26T14:56:19;6.63;;;4.25;;
10246;SDS011;5168;47.854;7.944;2023-06-26T14:58:45;4.28;;;3.65;;
10246;SDS011;5168;47.854;7.944;2023-06-26T15:01:14;5.22;;;3.95;;
10246;SDS011;5168;47.854;7.944;2023-06-26T15:03:40;5.40;;;4.25;;
10246;SDS011;5168;47.854;7.944;2023-06-26T15:06:06;7.32;;;5.00;;
10246;SDS011;5168;47.854;7.944;2023-06-26T15:08:33;7.28;;;4.45;;
10246;SDS011;5168;47.854;7.944;2023-06-26T15:11:00;6.63;;;4.55;;
10246;SDS011;5168;47.854;7.944;2023-06-26T15:13:26;4.78;;;4.20;;
10246;SDS011;5168;47.854;7.944;2023-06-26T15:15:52;5.78;;;4.40;;